sensor_id;sensor_type;location;lat;lon;timestamp;temperature;humidity
76291;DHT22;65100;46.884;17.410;2024-01-15T00:01:43;-2.80;75.60
76291;DHT22;65100;46.884;17.410;2024-01-15T00:04:09;-2.71;74.47
76291;DHT22;65100;46.884;17.410;2024-01-15T00:06:34;-2.94;72.91
76291;DHT22;65100;46.884;17.410;2024-01-15T00:09:00;-3.12;72.45
76291;DHT22;65100;46.884;17.410;2024-01-15T00:11:25;-3.73;74.59
76291;DHT22;65100;46.884;17.410;2024-01-15T00:13:51;-3.51;75.06
76291;DHT22;65100;46.884;17.410;2024-01-15T00:16:17;-3.72;75.83
76291;DHT22;65100;46.884;17.410;2024-01-15T00:18:42;-3.63;75.10
76291;DHT22;65100;46.884;17.410;2024-01-15T00:21:08;-3.80;76.48
76291;DHT22;65100;46.884;17.410;2024-01-15T00:23:33;-3.89;75.17
76291;DHT22;65100;46.884;17.410;2024-01-15T00:25:58;-4.37;76.88
76291;DHT22;65100;46.884;17.410;2024-01-15T00:28:24;-3.94;76.34
76291;DHT22;65100;46.884;17.410;2024-01-15T00:30:49;-3.83;76.07
76291;DHT22;65100;46.884;17.410;2024-01-15T00:33:15;-3.83;76.45
76291;DHT22;65100;46.884;17.410;2024-01-15T00:35:40;-3.91;76.37
76291;DHT22;65100;46.884;17.410;2024-01-15T00:38:06;-4.03;77.33
76291;DHT22;65100;46.884;17.410;2024-01-15T00:40:31;-3.90;77.51
76291;DHT22;65100;46.884;17.410;2024-01-15T00:42:57;-3.98;77.06
76291;DHT22;65100;46.884;17.410;2024-01-15T00:45:22;-3.89;78.36
76291;DHT22;65100;46.884;17.410;2024-01-15T00:47:48;-3.82;77.66
76291;DHT22;65100;46.884;17.410;2024-01-15T00:50:13;-3.79;79.36
76291;DHT22;65100;46.884;17.410;2024-01-15T00:52:40;-4.01;79.21
76291;DHT22;65100;46.884;17.410;2024-01-15T00:55:06;-4.06;79.88
76291;DHT22;65100;46.884;17.410;2024-01-15T00:57:31;-3.91;81.32
76291;DHT22;65100;46.884;17.410;2024-01-15T00:59:58;-3.72;79.63
76291;DHT22;65100;46.884;17.410;2024-01-15T01:02:23;-3.53;77.94
76291;DHT22;65100;46.884;17.410;2024-01-15T01:04:48;-3.64;77.44
76291;DHT22;65100;46.884;17.410;2024-01-15T01:07:14;-4.28;79.18
76291;DHT22;65100;46.884;17.410;2024-01-15T01:09:39;-4.21;80.56
76291;DHT22;65100;46.884;17.410;2024-01-15T01:12:05;-4.37;80.67
76291;DHT22;65100;46.884;17.410;2024-01-15T01:14:31;-4.52;81.87
76291;DHT22;65100;46.884;17.410;2024-01-15T01:16:57;-4.01;80.03
76291;DHT22;65100;46.884;17.410;2024-01-15T01:19:23;-4.22;77.98
76291;DHT22;65100;46.884;17.410;2024-01-15T01:21:50;-4.03;77.88
76291;DHT22;65100;46.884;17.410;2024-01-15T01:24:16;-4.00;75.88
76291;DHT22;65100;46.884;17.410;2024-01-15T01:26:42;-4.06;76.30
76291;DHT22;65100;46.884;17.410;2024-01-15T01:29:07;-4.13;76.51
76291;DHT22;65100;46.884;17.410;2024-01-15T01:31:33;-4.24;76.92
76291;DHT22;65100;46.884;17.410;2024-01-15T01:33:58;-4.44;78.17
76291;DHT22;65100;46.884;17.410;2024-01-15T01:36:24;-4.50;78.01
76291;DHT22;65100;46.884;17.410;2024-01-15T01:38:49;-4.81;79.49
76291;DHT22;65100;46.884;17.410;2024-01-15T01:41:14;-5.08;81.97
76291;DHT22;65100;46.884;17.410;2024-01-15T01:43:40;-5.03;82.83
76291;DHT22;65100;46.884;17.410;2024-01-15T01:46:06;-4.84;82.88
76291;DHT22;65100;46.884;17.410;2024-01-15T01:48:32;-4.54;83.16
76291;DHT22;65100;46.884;17.410;2024-01-15T01:51:00;-4.40;79.06
76291;DHT22;65100;46.884;17.410;2024-01-15T01:53:27;-4.20;78.52
76291;DHT22;65100;46.884;17.410;2024-01-15T01:55:54;-4.40;76.43
76291;DHT22;65100;46.884;17.410;2024-01-15T01:58:21;-4.74;78.06
76291;DHT22;65100;46.884;17.410;2024-01-15T02:00:47;-4.68;78.74
76291;DHT22;65100;46.884;17.410;2024-01-15T02:03:12;-4.40;79.15
76291;DHT22;65100;46.884;17.410;2024-01-15T02:05:39;-4.69;81.95
76291;DHT22;65100;46.884;17.410;2024-01-15T02:08:06;-4.21;82.89
76291;DHT22;65100;46.884;17.410;2024-01-15T02:10:31;-4.10;83.12
76291;DHT22;65100;46.884;17.410;2024-01-15T02:12:57;-4.40;81.15
76291;DHT22;65100;46.884;17.410;2024-01-15T02:15:23;-4.27;78.09
76291;DHT22;65100;46.884;17.410;2024-01-15T02:18:02;-4.04;76.48
76291;DHT22;65100;46.884;17.410;2024-01-15T02:20:28;-4.11;76.48
76291;DHT22;65100;46.884;17.410;2024-01-15T02:23:00;-4.68;79.16
76291;DHT22;65100;46.884;17.410;2024-01-15T02:25:26;-4.64;81.12
76291;DHT22;65100;46.884;17.410;2024-01-15T02:27:51;-4.42;81.16
76291;DHT22;65100;46.884;17.410;2024-01-15T02:30:17;-3.96;78.34
76291;DHT22;65100;46.884;17.410;2024-01-15T02:32:42;-3.90;78.23
76291;DHT22;65100;46.884;17.410;2024-01-15T02:35:08;-4.11;79.74
76291;DHT22;65100;46.884;17.410;2024-01-15T02:37:33;-4.22;80.57
76291;DHT22;65100;46.884;17.410;2024-01-15T02:39:58;-4.17;81.59
76291;DHT22;65100;46.884;17.410;2024-01-15T02:42:26;-4.04;81.93
76291;DHT22;65100;46.884;17.410;2024-01-15T02:44:51;-4.00;80.59
76291;DHT22;65100;46.884;17.410;2024-01-15T02:47:17;-3.80;80.04
76291;DHT22;65100;46.884;17.410;2024-01-15T02:49:42;-3.63;78.41
76291;DHT22;65100;46.884;17.410;2024-01-15T02:52:07;-3.63;78.95
76291;DHT22;65100;46.884;17.410;2024-01-15T02:54:33;-3.76;79.16
76291;DHT22;65100;46.884;17.410;2024-01-15T02:56:58;-3.83;79.11
76291;DHT22;65100;46.884;17.410;2024-01-15T02:59:24;-3.73;79.87
76291;DHT22;65100;46.884;17.410;2024-01-15T03:01:49;-3.60;79.18
76291;DHT22;65100;46.884;17.410;2024-01-15T03:04:15;-3.56;78.85
76291;DHT22;65100;46.884;17.410;2024-01-15T03:06:40;-3.43;81.30
76291;DHT22;65100;46.884;17.410;2024-01-15T03:09:06;-3.42;78.23
76291;DHT22;65100;46.884;17.410;2024-01-15T03:11:40;-3.49;78.81
76291;DHT22;65100;46.884;17.410;2024-01-15T03:14:06;-4.01;79.20
76291;DHT22;65100;46.884;17.410;2024-01-15T03:16:31;-4.08;82.04
76291;DHT22;65100;46.884;17.410;2024-01-15T03:18:57;-3.76;82.02
76291;DHT22;65100;46.884;17.410;2024-01-15T03:21:22;-3.32;82.10
76291;DHT22;65100;46.884;17.410;2024-01-15T03:23:47;-3.20;80.07
76291;DHT22;65100;46.884;17.410;2024-01-15T03:26:13;-3.36;80.02
76291;DHT22;65100;46.884;17.410;2024-01-15T03:28:38;-3.42;78.11
76291;DHT22;65100;46.884;17.410;2024-01-15T03:31:04;-3.82;79.08
76291;DHT22;65100;46.884;17.410;2024-01-15T03:33:29;-3.58;80.07
76291;DHT22;65100;46.884;17.410;2024-01-15T03:35:55;-3.87;80.58
76291;DHT22;65100;46.884;17.410;2024-01-15T03:38:20;-3.38;79.59
76291;DHT22;65100;46.884;17.410;2024-01-15T03:40:45;-3.53;79.56
76291;DHT22;65100;46.884;17.410;2024-01-15T03:43:12;-3.63;79.69
76291;DHT22;65100;46.884;17.410;2024-01-15T03:45:37;-3.63;79.22
76291;DHT22;65100;46.884;17.410;2024-01-15T03:48:03;-4.10;81.19
76291;DHT22;65100;46.884;17.410;2024-01-15T03:50:28;-3.84;81.37
76291;DHT22;65100;46.884;17.410;2024-01-15T03:52:54;-3.45;79.33
76291;DHT22;65100;46.884;17.410;2024-01-15T03:55:19;-3.39;79.22
76291;DHT22;65100;46.884;17.410;2024-01-15T03:57:44;-3.52;79.53
76291;DHT22;65100;46.884;17.410;2024-01-15T04:00:10;-3.48;78.51
76291;DHT22;65100;46.884;17.410;2024-01-15T04:02:36;-3.72;79.00
76291;DHT22;65100;46.884;17.410;2024-01-15T04:05:02;-3.87;80.73
76291;DHT22;65100;46.884;17.410;2024-01-15T04:07:27;-4.08;81.38
76291;DHT22;65100;46.884;17.410;2024-01-15T04:09:53;-3.96;80.96
76291;DHT22;65100;46.884;17.410;2024-01-15T04:12:18;-3.94;81.09
76291;DHT22;65100;46.884;17.410;2024-01-15T04:14:43;-3.96;81.35
76291;DHT22;65100;46.884;17.410;2024-01-15T04:17:09;-4.38;82.71
76291;DHT22;65100;46.884;17.410;2024-01-15T04:19:34;-4.24;83.63
76291;DHT22;65100;46.884;17.410;2024-01-15T04:22:00;-3.49;80.79
76291;DHT22;65100;46.884;17.410;2024-01-15T04:24:25;-3.58;79.33
76291;DHT22;65100;46.884;17.410;2024-01-15T04:26:51;-3.64;79.66
76291;DHT22;65100;46.884;17.410;2024-01-15T04:29:16;-3.56;78.55
76291;DHT22;65100;46.884;17.410;2024-01-15T04:31:42;-3.66;78.81
76291;DHT22;65100;46.884;17.410;2024-01-15T04:34:07;-3.77;78.95
76291;DHT22;65100;46.884;17.410;2024-01-15T04:36:38;-4.20;80.45
76291;DHT22;65100;46.884;17.410;2024-01-15T04:39:04;-4.01;80.02
76291;DHT22;65100;46.884;17.410;2024-01-15T04:41:30;-3.69;78.85
76291;DHT22;65100;46.884;17.410;2024-01-15T04:43:55;-3.74;78.65
76291;DHT22;65100;46.884;17.410;2024-01-15T04:46:20;-4.24;79.63
76291;DHT22;65100;46.884;17.410;2024-01-15T04:48:46;-4.60;82.48
76291;DHT22;65100;46.884;17.410;2024-01-15T04:51:11;-4.61;82.56
76291;DHT22;65100;46.884;17.410;2024-01-15T04:53:37;-4.51;83.44
76291;DHT22;65100;46.884;17.410;2024-01-15T04:56:03;-4.40;83.62
76291;DHT22;65100;46.884;17.410;2024-01-15T04:58:28;-4.40;83.95
76291;DHT22;65100;46.884;17.410;2024-01-15T05:00:54;-4.21;83.65
76291;DHT22;65100;46.884;17.410;2024-01-15T05:03:20;-4.22;83.80
76291;DHT22;65100;46.884;17.410;2024-01-15T05:05:45;-4.08;84.78
76291;DHT22;65100;46.884;17.410;2024-01-15T05:08:11;-3.66;81.42
76291;DHT22;65100;46.884;17.410;2024-01-15T05:10:36;-4.10;81.49
76291;DHT22;65100;46.884;17.410;2024-01-15T05:13:02;-4.11;83.74
76291;DHT22;65100;46.884;17.410;2024-01-15T05:15:27;-3.67;83.42
76291;DHT22;65100;46.884;17.410;2024-01-15T05:17:53;-3.11;80.16
76291;DHT22;65100;46.884;17.410;2024-01-15T05:20:18;-3.42;79.27
76291;DHT22;65100;46.884;17.410;2024-01-15T05:22:44;-3.51;80.40
76291;DHT22;65100;46.884;17.410;2024-01-15T05:25:09;-3.45;79.45
76291;DHT22;65100;46.884;17.410;2024-01-15T05:27:35;-3.34;80.70
76291;DHT22;65100;46.884;17.410;2024-01-15T05:30:00;-3.20;81.21
76291;DHT22;65100;46.884;17.410;2024-01-15T05:32:25;-3.18;81.85
76291;DHT22;65100;46.884;17.410;2024-01-15T05:34:51;-3.16;83.09
76291;DHT22;65100;46.884;17.410;2024-01-15T05:37:16;-3.31;83.22
76291;DHT22;65100;46.884;17.410;2024-01-15T05:39:42;-2.73;84.88
76291;DHT22;65100;46.884;17.410;2024-01-15T05:42:07;-2.47;84.22
76291;DHT22;65100;46.884;17.410;2024-01-15T05:44:32;-2.41;84.07
76291;DHT22;65100;46.884;17.410;2024-01-15T05:46:58;-2.13;83.01
76291;DHT22;65100;46.884;17.410;2024-01-15T05:49:23;-2.32;83.68
76291;DHT22;65100;46.884;17.410;2024-01-15T05:51:49;-2.33;84.10
76291;DHT22;65100;46.884;17.410;2024-01-15T05:54:14;-2.46;84.39
76291;DHT22;65100;46.884;17.410;2024-01-15T05:56:40;-2.34;84.22
76291;DHT22;65100;46.884;17.410;2024-01-15T05:59:05;-2.44;84.62
76291;DHT22;65100;46.884;17.410;2024-01-15T06:01:31;-2.34;84.79
76291;DHT22;65100;46.884;17.410;2024-01-15T06:03:56;-2.34;84.68
76291;DHT22;65100;46.884;17.410;2024-01-15T06:06:22;-2.30;84.84
76291;DHT22;65100;46.884;17.410;2024-01-15T06:08:47;-2.02;84.34
76291;DHT22;65100;46.884;17.410;2024-01-15T06:11:13;-1.76;83.35
76291;DHT22;65100;46.884;17.410;2024-01-15T06:13:38;-1.92;82.84
76291;DHT22;65100;46.884;17.410;2024-01-15T06:16:13;-2.39;85.35
76291;DHT22;65100;46.884;17.410;2024-01-15T06:18:39;-2.51;86.30
76291;DHT22;65100;46.884;17.410;2024-01-15T06:21:04;-2.07;84.51
76291;DHT22;65100;46.884;17.410;2024-01-15T06:23:30;-2.26;82.10
76291;DHT22;65100;46.884;17.410;2024-01-15T06:25:55;-2.30;83.21
76291;DHT22;65100;46.884;17.410;2024-01-15T06:28:21;-2.49;83.93
76291;DHT22;65100;46.884;17.410;2024-01-15T06:30:46;-2.54;84.31
76291;DHT22;65100;46.884;17.410;2024-01-15T06:33:11;-2.47;83.68
76291;DHT22;65100;46.884;17.410;2024-01-15T06:35:37;-2.14;82.96
76291;DHT22;65100;46.884;17.410;2024-01-15T06:38:02;-2.50;83.77
76291;DHT22;65100;46.884;17.410;2024-01-15T06:40:28;-2.83;85.10
76291;DHT22;65100;46.884;17.410;2024-01-15T06:42:53;-2.57;84.25
76291;DHT22;65100;46.884;17.410;2024-01-15T06:46:00;-1.89;83.04
76291;DHT22;65100;46.884;17.410;2024-01-15T06:48:26;-1.76;82.03
76291;DHT22;65100;46.884;17.410;2024-01-15T06:50:51;-1.79;82.40
76291;DHT22;65100;46.884;17.410;2024-01-15T06:53:16;-1.79;82.42
76291;DHT22;65100;46.884;17.410;2024-01-15T06:55:42;-1.90;83.48
76291;DHT22;65100;46.884;17.410;2024-01-15T06:58:07;-1.55;82.86
76291;DHT22;65100;46.884;17.410;2024-01-15T07:00:33;-1.31;82.19
76291;DHT22;65100;46.884;17.410;2024-01-15T07:02:58;-1.17;82.73
76291;DHT22;65100;46.884;17.410;2024-01-15T07:05:24;-1.37;83.15
76291;DHT22;65100;46.884;17.410;2024-01-15T07:07:49;-1.39;83.21
76291;DHT22;65100;46.884;17.410;2024-01-15T07:10:15;-1.14;82.61
76291;DHT22;65100;46.884;17.410;2024-01-15T07:12:44;-0.77;81.82
76291;DHT22;65100;46.884;17.410;2024-01-15T07:15:10;-0.73;82.21
76291;DHT22;65100;46.884;17.410;2024-01-15T07:17:35;-0.39;81.74
76291;DHT22;65100;46.884;17.410;2024-01-15T07:20:05;-0.36;81.45
76291;DHT22;65100;46.884;17.410;2024-01-15T07:22:33;-0.20;80.96
76291;DHT22;65100;46.884;17.410;2024-01-15T07:24:58;-0.05;79.92
76291;DHT22;65100;46.884;17.410;2024-01-15T07:27:23;-0.28;80.51
76291;DHT22;65100;46.884;17.410;2024-01-15T07:29:49;-0.29;80.64
76291;DHT22;65100;46.884;17.410;2024-01-15T07:32:15;-0.52;81.75
76291;DHT22;65100;46.884;17.410;2024-01-15T07:34:40;-0.41;82.16
76291;DHT22;65100;46.884;17.410;2024-01-15T07:37:06;-0.18;81.50
76291;DHT22;65100;46.884;17.410;2024-01-15T07:39:33;-0.05;80.60
76291;DHT22;65100;46.884;17.410;2024-01-15T07:41:58;-0.52;81.39
76291;DHT22;65100;46.884;17.410;2024-01-15T07:44:23;-0.88;82.02
76291;DHT22;65100;46.884;17.410;2024-01-15T07:46:49;-1.04;82.72
76291;DHT22;65100;46.884;17.410;2024-01-15T07:49:14;-0.70;82.26
76291;DHT22;65100;46.884;17.410;2024-01-15T07:51:40;-0.61;81.31
76291;DHT22;65100;46.884;17.410;2024-01-15T07:54:06;-0.87;82.14
76291;DHT22;65100;46.884;17.410;2024-01-15T07:56:32;-0.53;81.77
76291;DHT22;65100;46.884;17.410;2024-01-15T07:58:58;-0.48;81.33
76291;DHT22;65100;46.884;17.410;2024-01-15T08:01:24;0.01;81.68
76291;DHT22;65100;46.884;17.410;2024-01-15T08:03:49;0.79;78.19
76291;DHT22;65100;46.884;17.410;2024-01-15T08:06:15;1.16;77.29
76291;DHT22;65100;46.884;17.410;2024-01-15T08:08:40;1.46;76.39
76291;DHT22;65100;46.884;17.410;2024-01-15T08:11:06;1.64;79.91
76291;DHT22;65100;46.884;17.410;2024-01-15T08:13:32;1.37;77.19
76291;DHT22;65100;46.884;17.410;2024-01-15T08:15:57;1.04;78.37
76291;DHT22;65100;46.884;17.410;2024-01-15T08:18:23;1.04;82.32
76291;DHT22;65100;46.884;17.410;2024-01-15T08:20:49;1.12;81.71
76291;DHT22;65100;46.884;17.410;2024-01-15T08:23:16;1.38;82.93
76291;DHT22;65100;46.884;17.410;2024-01-15T08:25:42;1.61;80.51
76291;DHT22;65100;46.884;17.410;2024-01-15T08:28:08;1.54;79.25
76291;DHT22;65100;46.884;17.410;2024-01-15T08:30:36;1.77;78.83
76291;DHT22;65100;46.884;17.410;2024-01-15T08:33:01;1.64;79.56
76291;DHT22;65100;46.884;17.410;2024-01-15T08:35:27;1.70;79.80
76291;DHT22;65100;46.884;17.410;2024-01-15T08:37:52;1.84;80.12
76291;DHT22;65100;46.884;17.410;2024-01-15T08:40:18;2.01;79.69
76291;DHT22;65100;46.884;17.410;2024-01-15T08:42:44;1.98;80.40
76291;DHT22;65100;46.884;17.410;2024-01-15T08:45:10;2.08;80.57
76291;DHT22;65100;46.884;17.410;2024-01-15T08:47:36;2.22;80.10
76291;DHT22;65100;46.884;17.410;2024-01-15T08:50:02;2.43;79.49
76291;DHT22;65100;46.884;17.410;2024-01-15T08:52:28;2.57;79.68
76291;DHT22;65100;46.884;17.410;2024-01-15T08:54:55;2.56;80.32
76291;DHT22;65100;46.884;17.410;2024-01-15T08:57:20;2.26;81.27
76291;DHT22;65100;46.884;17.410;2024-01-15T08:59:47;2.45;81.65
76291;DHT22;65100;46.884;17.410;2024-01-15T09:02:12;2.56;81.06
76291;DHT22;65100;46.884;17.410;2024-01-15T09:04:38;2.86;79.48
76291;DHT22;65100;46.884;17.410;2024-01-15T09:07:04;2.60;80.58
76291;DHT22;65100;46.884;17.410;2024-01-15T09:09:29;2.53;82.30
76291;DHT22;65100;46.884;17.410;2024-01-15T09:11:55;2.72;79.88
76291;DHT22;65100;46.884;17.410;2024-01-15T09:14:21;2.75;80.16
76291;DHT22;65100;46.884;17.410;2024-01-15T09:16:49;2.57;80.82
76291;DHT22;65100;46.884;17.410;2024-01-15T09:19:14;2.72;82.24
76291;DHT22;65100;46.884;17.410;2024-01-15T09:21:40;2.89;81.27
76291;DHT22;65100;46.884;17.410;2024-01-15T09:24:05;3.16;79.80
76291;DHT22;65100;46.884;17.410;2024-01-15T09:26:31;3.24;79.58
76291;DHT22;65100;46.884;17.410;2024-01-15T09:28:57;3.38;78.66
76291;DHT22;65100;46.884;17.410;2024-01-15T09:31:22;3.52;77.64
76291;DHT22;65100;46.884;17.410;2024-01-15T09:33:49;3.42;77.30
76291;DHT22;65100;46.884;17.410;2024-01-15T09:36:17;3.48;78.13
76291;DHT22;65100;46.884;17.410;2024-01-15T09:38:42;3.64;77.10
76291;DHT22;65100;46.884;17.410;2024-01-15T09:41:08;3.81;76.83
76291;DHT22;65100;46.884;17.410;2024-01-15T09:43:33;3.81;77.70
76291;DHT22;65100;46.884;17.410;2024-01-15T09:45:59;3.89;77.48
76291;DHT22;65100;46.884;17.410;2024-01-15T09:48:25;4.12;77.40
76291;DHT22;65100;46.884;17.410;2024-01-15T09:50:50;4.09;77.31
76291;DHT22;65100;46.884;17.410;2024-01-15T09:53:16;4.25;76.69
76291;DHT22;65100;46.884;17.410;2024-01-15T09:55:42;4.59;75.03
76291;DHT22;65100;46.884;17.410;2024-01-15T09:58:08;4.71;74.11
76291;DHT22;65100;46.884;17.410;2024-01-15T10:00:34;4.88;73.24
76291;DHT22;65100;46.884;17.410;2024-01-15T10:03:04;5.03;72.11
76291;DHT22;65100;46.884;17.410;2024-01-15T10:05:30;5.10;71.82
76291;DHT22;65100;46.884;17.410;2024-01-15T10:07:57;5.01;69.97
76291;DHT22;65100;46.884;17.410;2024-01-15T10:10:23;5.08;70.62
76291;DHT22;65100;46.884;17.410;2024-01-15T10:12:49;4.97;72.96
76291;DHT22;65100;46.884;17.410;2024-01-15T10:15:16;5.00;71.90
76291;DHT22;65100;46.884;17.410;2024-01-15T10:17:42;5.08;70.51
76291;DHT22;65100;46.884;17.410;2024-01-15T10:20:11;5.23;70.74
76291;DHT22;65100;46.884;17.410;2024-01-15T10:22:41;5.23;70.04
76291;DHT22;65100;46.884;17.410;2024-01-15T10:25:10;5.39;69.47
76291;DHT22;65100;46.884;17.410;2024-01-15T10:27:36;5.38;67.59
76291;DHT22;65100;46.884;17.410;2024-01-15T10:30:01;5.51;65.60
76291;DHT22;65100;46.884;17.410;2024-01-15T10:32:28;5.81;65.47
76291;DHT22;65100;46.884;17.410;2024-01-15T10:34:54;5.88;60.93
76291;DHT22;65100;46.884;17.410;2024-01-15T10:37:19;5.95;63.18
76291;DHT22;65100;46.884;17.410;2024-01-15T10:39:48;6.41;68.63
76291;DHT22;65100;46.884;17.410;2024-01-15T10:42:13;6.30;64.94
76291;DHT22;65100;46.884;17.410;2024-01-15T10:44:39;6.22;67.02
76291;DHT22;65100;46.884;17.410;2024-01-15T10:47:04;6.50;71.42
76291;DHT22;65100;46.884;17.410;2024-01-15T10:49:30;6.53;60.77
76291;DHT22;65100;46.884;17.410;2024-01-15T10:51:56;6.94;65.21
76291;DHT22;65100;46.884;17.410;2024-01-15T10:54:22;7.21;57.68
76291;DHT22;65100;46.884;17.410;2024-01-15T10:56:50;7.12;55.36
76291;DHT22;65100;46.884;17.410;2024-01-15T10:59:16;7.27;55.55
76291;DHT22;65100;46.884;17.410;2024-01-15T11:01:42;7.31;50.45
76291;DHT22;65100;46.884;17.410;2024-01-15T11:04:09;7.44;53.17
76291;DHT22;65100;46.884;17.410;2024-01-15T11:06:45;7.51;50.93
76291;DHT22;65100;46.884;17.410;2024-01-15T11:09:12;7.56;53.32
76291;DHT22;65100;46.884;17.410;2024-01-15T11:11:47;7.66;49.92
76291;DHT22;65100;46.884;17.410;2024-01-15T11:17:04;7.68;51.31
76291;DHT22;65100;46.884;17.410;2024-01-15T11:22:10;7.58;49.48
76291;DHT22;65100;46.884;17.410;2024-01-15T11:24:40;7.62;49.62
76291;DHT22;65100;46.884;17.410;2024-01-15T11:27:07;7.66;48.32
76291;DHT22;65100;46.884;17.410;2024-01-15T11:29:35;7.58;47.14
76291;DHT22;65100;46.884;17.410;2024-01-15T11:32:02;7.69;49.51
76291;DHT22;65100;46.884;17.410;2024-01-15T11:34:58;7.72;50.81
76291;DHT22;65100;46.884;17.410;2024-01-15T11:37:25;7.76;50.07
76291;DHT22;65100;46.884;17.410;2024-01-15T11:40:04;7.87;52.32
76291;DHT22;65100;46.884;17.410;2024-01-15T11:42:29;7.93;48.99
76291;DHT22;65100;46.884;17.410;2024-01-15T11:44:55;7.90;52.57
76291;DHT22;65100;46.884;17.410;2024-01-15T11:48:15;8.00;48.60
76291;DHT22;65100;46.884;17.410;2024-01-15T11:50:22;7.97;47.16
76291;DHT22;65100;46.884;17.410;2024-01-15T11:53:01;8.07;49.25
76291;DHT22;65100;46.884;17.410;2024-01-15T11:55:34;8.10;48.01
76291;DHT22;65100;46.884;17.410;2024-01-15T11:58:01;7.89;45.95
76291;DHT22;65100;46.884;17.410;2024-01-15T12:00:27;7.73;47.20
76291;DHT22;65100;46.884;17.410;2024-01-15T12:02:53;7.54;47.13
76291;DHT22;65100;46.884;17.410;2024-01-15T12:05:20;7.45;49.97
76291;DHT22;65100;46.884;17.410;2024-01-15T12:07:47;7.41;52.61
76291;DHT22;65100;46.884;17.410;2024-01-15T12:10:18;7.34;51.68
76291;DHT22;65100;46.884;17.410;2024-01-15T12:13:00;7.22;52.02
76291;DHT22;65100;46.884;17.410;2024-01-15T12:15:27;7.35;52.31
76291;DHT22;65100;46.884;17.410;2024-01-15T12:17:55;7.31;52.23
76291;DHT22;65100;46.884;17.410;2024-01-15T12:20:23;7.41;52.85
76291;DHT22;65100;46.884;17.410;2024-01-15T12:22:49;7.44;52.33
76291;DHT22;65100;46.884;17.410;2024-01-15T12:25:15;7.41;49.70
76291;DHT22;65100;46.884;17.410;2024-01-15T12:27:41;7.41;52.00
76291;DHT22;65100;46.884;17.410;2024-01-15T12:30:07;7.34;51.47
76291;DHT22;65100;46.884;17.410;2024-01-15T12:32:35;7.22;50.35
76291;DHT22;65100;46.884;17.410;2024-01-15T12:35:01;7.25;52.63
76291;DHT22;65100;46.884;17.410;2024-01-15T12:37:26;7.24;52.76
76291;DHT22;65100;46.884;17.410;2024-01-15T12:39:52;7.29;54.33
76291;DHT22;65100;46.884;17.410;2024-01-15T12:42:21;7.31;53.23
76291;DHT22;65100;46.884;17.410;2024-01-15T12:44:47;7.32;54.23
76291;DHT22;65100;46.884;17.410;2024-01-15T12:47:12;7.29;54.10
76291;DHT22;65100;46.884;17.410;2024-01-15T12:49:39;7.38;52.21
76291;DHT22;65100;46.884;17.410;2024-01-15T12:52:08;7.38;53.07
76291;DHT22;65100;46.884;17.410;2024-01-15T12:54:34;7.42;51.64
76291;DHT22;65100;46.884;17.410;2024-01-15T12:57:00;7.41;53.18
76291;DHT22;65100;46.884;17.410;2024-01-15T12:59:25;7.44;52.58
76291;DHT22;65100;46.884;17.410;2024-01-15T13:01:51;7.36;52.63
76291;DHT22;65100;46.884;17.410;2024-01-15T13:04:23;7.34;52.73
76291;DHT22;65100;46.884;17.410;2024-01-15T13:06:49;7.35;51.40
76291;DHT22;65100;46.884;17.410;2024-01-15T13:09:15;7.34;50.78
76291;DHT22;65100;46.884;17.410;2024-01-15T13:11:40;7.29;51.61
76291;DHT22;65100;46.884;17.410;2024-01-15T13:14:06;7.29;51.79
76291;DHT22;65100;46.884;17.410;2024-01-15T13:16:32;7.24;53.44
76291;DHT22;65100;46.884;17.410;2024-01-15T13:19:00;6.95;48.47
76291;DHT22;65100;46.884;17.410;2024-01-15T13:21:26;7.01;50.50
76291;DHT22;65100;46.884;17.410;2024-01-15T13:23:51;6.95;50.65
76291;DHT22;65100;46.884;17.410;2024-01-15T13:26:17;6.94;53.49
76291;DHT22;65100;46.884;17.410;2024-01-15T13:28:44;6.91;54.01
76291;DHT22;65100;46.884;17.410;2024-01-15T13:31:10;6.81;53.57
76291;DHT22;65100;46.884;17.410;2024-01-15T13:33:35;6.83;55.85
76291;DHT22;65100;46.884;17.410;2024-01-15T13:36:00;6.64;52.74
76291;DHT22;65100;46.884;17.410;2024-01-15T13:38:27;6.79;53.29
76291;DHT22;65100;46.884;17.410;2024-01-15T13:40:53;6.74;52.92
76291;DHT22;65100;46.884;17.410;2024-01-15T13:43:20;6.64;51.92
76291;DHT22;65100;46.884;17.410;2024-01-15T13:45:46;6.58;53.88
76291;DHT22;65100;46.884;17.410;2024-01-15T13:48:11;6.47;53.35
76291;DHT22;65100;46.884;17.410;2024-01-15T13:50:37;6.41;54.02
76291;DHT22;65100;46.884;17.410;2024-01-15T13:53:03;6.27;51.98
76291;DHT22;65100;46.884;17.410;2024-01-15T13:55:29;6.19;50.46
76291;DHT22;65100;46.884;17.410;2024-01-15T13:57:55;6.30;53.72
76291;DHT22;65100;46.884;17.410;2024-01-15T14:00:20;6.19;52.51
76291;DHT22;65100;46.884;17.410;2024-01-15T14:02:46;6.19;52.61
76291;DHT22;65100;46.884;17.410;2024-01-15T14:05:12;6.15;54.16
76291;DHT22;65100;46.884;17.410;2024-01-15T14:07:40;6.19;54.18
76291;DHT22;65100;46.884;17.410;2024-01-15T14:10:07;6.10;54.01
76291;DHT22;65100;46.884;17.410;2024-01-15T14:12:33;6.06;55.78
76291;DHT22;65100;46.884;17.410;2024-01-15T14:14:59;6.05;54.55
76291;DHT22;65100;46.884;17.410;2024-01-15T14:17:25;6.05;55.76
76291;DHT22;65100;46.884;17.410;2024-01-15T14:19:50;6.05;53.56
76291;DHT22;65100;46.884;17.410;2024-01-15T14:22:16;5.93;52.68
76291;DHT22;65100;46.884;17.410;2024-01-15T14:24:41;5.75;53.54
76291;DHT22;65100;46.884;17.410;2024-01-15T14:27:07;5.63;54.25
76291;DHT22;65100;46.884;17.410;2024-01-15T14:29:33;5.86;57.19
76291;DHT22;65100;46.884;17.410;2024-01-15T14:31:58;5.88;56.00
76291;DHT22;65100;46.884;17.410;2024-01-15T14:34:25;5.98;58.52
76291;DHT22;65100;46.884;17.410;2024-01-15T14:36:51;6.07;54.85
76291;DHT22;65100;46.884;17.410;2024-01-15T14:39:19;5.95;53.54
76291;DHT22;65100;46.884;17.410;2024-01-15T14:41:45;5.96;59.48
76291;DHT22;65100;46.884;17.410;2024-01-15T14:44:11;5.86;55.87
76291;DHT22;65100;46.884;17.410;2024-01-15T14:46:37;5.75;54.38
76291;DHT22;65100;46.884;17.410;2024-01-15T14:49:03;5.96;56.07
76291;DHT22;65100;46.884;17.410;2024-01-15T14:51:29;5.98;59.44
76291;DHT22;65100;46.884;17.410;2024-01-15T14:53:54;6.05;59.24
76291;DHT22;65100;46.884;17.410;2024-01-15T14:56:20;6.03;52.15
76291;DHT22;65100;46.884;17.410;2024-01-15T14:58:45;6.05;58.72
76291;DHT22;65100;46.884;17.410;2024-01-15T15:01:12;6.27;58.04
76291;DHT22;65100;46.884;17.410;2024-01-15T15:03:38;6.12;55.19
76291;DHT22;65100;46.884;17.410;2024-01-15T15:06:03;5.71;55.41
76291;DHT22;65100;46.884;17.410;2024-01-15T15:08:28;5.83;60.58
76291;DHT22;65100;46.884;17.410;2024-01-15T15:10:54;5.98;58.50
76291;DHT22;65100;46.884;17.410;2024-01-15T15:13:22;6.07;57.02
76291;DHT22;65100;46.884;17.410;2024-01-15T15:15:48;6.02;56.24
76291;DHT22;65100;46.884;17.410;2024-01-15T15:18:14;5.88;56.49
76291;DHT22;65100;46.884;17.410;2024-01-15T15:20:39;5.96;60.54
76291;DHT22;65100;46.884;17.410;2024-01-15T15:23:05;5.93;60.77